createdAt,value
2023-05-13T00:01:57.411Z,9.41
2023-05-13T00:05:08.074Z,9.29
2023-05-13T00:08:12.102Z,9.23
2023-05-13T00:11:15.756Z,9.17
2023-05-13T00:14:19.493Z,9.11
2023-05-13T00:17:23.055Z,9.07
2023-05-13T00:20:28.017Z,8.95
2023-05-13T00:23:31.725Z,8.97
2023-05-13T00:26:35.168Z,8.90
2023-05-13T00:29:38.855Z,9.11
2023-05-13T00:32:42.490Z,9.07
2023-05-13T00:35:47.578Z,8.99
2023-05-13T00:38:54.177Z,8.97
2023-05-13T00:41:59.388Z,9.08
2023-05-13T00:45:03.187Z,8.92
2023-05-13T00:48:09.730Z,8.96
2023-05-13T00:51:14.891Z,8.70
2023-05-13T00:54:18.426Z,8.77
2023-05-13T00:57:22.573Z,8.83
2023-05-13T01:00:26.336Z,8.86
2023-05-13T01:03:36.633Z,8.83
2023-05-13T01:06:53.715Z,8.83
2023-05-13T01:10:04.875Z,8.65
2023-05-13T01:13:12.709Z,8.52
2023-05-13T01:16:23.336Z,8.52
2023-05-13T01:19:40.318Z,8.54
2023-05-13T01:22:45.380Z,8.55
2023-05-13T01:25:50.608Z,8.54
2023-05-13T01:28:54.428Z,8.48
2023-05-13T01:32:00.573Z,8.40
2023-05-13T01:35:05.445Z,8.46
2023-05-13T01:38:12.980Z,8.26
2023-05-13T01:41:16.560Z,8.19
2023-05-13T01:44:20.292Z,8.28
2023-05-13T01:47:23.816Z,8.19
2023-05-13T01:50:27.596Z,8.05
2023-05-13T01:53:32.591Z,8.16
2023-05-13T01:56:36.175Z,8.10
2023-05-13T01:59:40.014Z,7.95
2023-05-13T02:02:43.605Z,7.97
2023-05-13T02:05:47.982Z,7.88
2023-05-13T02:08:52.959Z,8.10
2023-05-13T02:11:56.601Z,7.95
2023-05-13T02:15:00.150Z,7.87
2023-05-13T02:18:03.741Z,7.99
2023-05-13T02:21:07.477Z,8.02
2023-05-13T02:24:13.857Z,7.99
2023-05-13T02:27:17.308Z,7.99
2023-05-13T02:30:21.008Z,7.98
2023-05-13T02:33:24.795Z,7.97
2023-05-13T02:36:28.712Z,8.00
2023-05-13T02:39:33.836Z,8.12
2023-05-13T02:42:37.259Z,8.03
2023-05-13T02:45:42.086Z,7.95
2023-05-13T02:48:46.976Z,8.00
2023-05-13T02:51:50.538Z,7.93
2023-05-13T02:54:59.616Z,8.00
2023-05-13T02:58:03.338Z,7.88
2023-05-13T03:01:07.640Z,8.01
2023-05-13T03:04:11.364Z,7.70
2023-05-13T03:07:14.872Z,7.77
2023-05-13T03:10:19.971Z,7.87
2023-05-13T03:13:23.937Z,7.82
2023-05-13T03:16:27.611Z,7.80
2023-05-13T03:19:30.997Z,7.84
2023-05-13T03:22:34.822Z,7.76
2023-05-13T03:25:39.967Z,7.94
2023-05-13T03:28:43.761Z,7.93
2023-05-13T03:31:47.682Z,7.92
2023-05-13T03:34:51.812Z,7.97
2023-05-13T03:37:55.292Z,7.90
2023-05-13T03:41:00.407Z,7.96
2023-05-13T03:44:04.122Z,7.94
2023-05-13T03:47:08.274Z,7.93
2023-05-13T03:50:12.309Z,8.07
2023-05-13T03:53:21.394Z,8.03
2023-05-13T03:56:26.729Z,8.09
2023-05-13T03:59:31.031Z,8.19
2023-05-13T04:02:34.611Z,8.21
2023-05-13T04:05:38.162Z,8.28
2023-05-13T04:08:42.031Z,8.26
2023-05-13T04:11:46.911Z,8.39
2023-05-13T04:14:50.407Z,8.37
2023-05-13T04:17:54.049Z,8.27
2023-05-13T04:20:57.540Z,8.28
2023-05-13T04:24:00.884Z,8.38
2023-05-13T04:27:06.384Z,8.31
2023-05-13T04:30:11.110Z,8.28
2023-05-13T04:33:16.830Z,8.28
2023-05-13T04:36:22.715Z,8.38
2023-05-13T04:39:26.918Z,8.42
2023-05-13T04:42:32.442Z,8.61
2023-05-13T04:45:37.368Z,8.68
2023-05-13T04:48:48.720Z,8.72
2023-05-13T04:51:52.929Z,8.80
2023-05-13T04:54:57.165Z,8.89
2023-05-13T04:58:02.286Z,8.97
2023-05-13T05:01:06.099Z,8.98
2023-05-13T05:04:09.853Z,9.13
2023-05-13T05:07:13.679Z,9.01
2023-05-13T05:10:28.170Z,9.10
2023-05-13T05:13:37.027Z,9.23
2023-05-13T05:16:41.016Z,9.48
2023-05-13T05:19:45.635Z,9.49
2023-05-13T05:22:50.312Z,9.73
2023-05-13T05:26:07.908Z,9.56
2023-05-13T05:29:17.053Z,9.58
2023-05-13T05:32:21.859Z,9.58
2023-05-13T05:35:25.515Z,9.55
2023-05-13T05:38:29.542Z,9.79
2023-05-13T05:41:35.175Z,10.14
2023-05-13T05:44:40.485Z,10.44
2023-05-13T05:47:44.476Z,10.88
2023-05-13T05:50:49.309Z,10.69
2023-05-13T05:54:00.073Z,10.78
2023-05-13T05:57:03.764Z,10.90
2023-05-13T06:00:10.552Z,10.99
2023-05-13T06:03:18.842Z,11.19
2023-05-13T06:06:22.586Z,11.19
2023-05-13T06:09:26.253Z,11.56
2023-05-13T06:12:30.181Z,11.52
2023-05-13T06:15:35.195Z,11.66
2023-05-13T06:18:39.239Z,11.85
2023-05-13T06:21:43.290Z,12.09
2023-05-13T06:24:47.186Z,12.21
2023-05-13T06:27:50.847Z,12.20
2023-05-13T06:30:59.991Z,12.24
2023-05-13T06:34:03.513Z,12.39
2023-05-13T06:37:08.061Z,12.68
2023-05-13T06:40:12.557Z,12.63
2023-05-13T06:43:18.913Z,12.69
2023-05-13T06:46:26.908Z,12.66
2023-05-13T06:49:30.574Z,12.66
2023-05-13T06:52:34.197Z,12.50
2023-05-13T06:55:41.931Z,12.70
2023-05-13T06:58:45.534Z,12.83
2023-05-13T07:01:50.551Z,12.79
2023-05-13T07:04:54.113Z,12.94
2023-05-13T07:07:57.975Z,13.05
2023-05-13T07:11:03.208Z,13.87
2023-05-13T07:14:18.199Z,14.69
2023-05-13T07:17:23.656Z,14.99
2023-05-13T07:20:27.255Z,15.44
2023-05-13T07:23:31.649Z,15.32
2023-05-13T07:26:35.204Z,15.17
2023-05-13T07:29:38.909Z,14.95
2023-05-13T07:32:44.049Z,14.85
2023-05-13T07:35:48.067Z,15.10
2023-05-13T07:38:51.799Z,15.44
2023-05-13T07:41:55.479Z,15.61
2023-05-13T07:44:58.876Z,16.06
2023-05-13T07:48:03.992Z,16.48
2023-05-13T07:51:07.675Z,16.35
2023-05-13T07:54:11.414Z,16.40
2023-05-13T07:57:15.072Z,16.66
2023-05-13T08:00:19.333Z,17.26
2023-05-13T08:03:25.092Z,16.92
2023-05-13T08:06:28.631Z,16.85
2023-05-13T08:09:32.006Z,16.91
2023-05-13T08:12:35.456Z,17.38
2023-05-13T08:15:39.377Z,17.88
2023-05-13T08:18:44.695Z,18.12
2023-05-13T08:21:48.608Z,18.06
2023-05-13T08:24:52.281Z,17.99
2023-05-13T08:27:55.984Z,17.97
2023-05-13T08:31:02.703Z,17.69
2023-05-13T08:34:09.038Z,17.60
2023-05-13T08:37:12.471Z,17.86
2023-05-13T08:40:16.459Z,17.78
2023-05-13T08:43:20.928Z,17.84
2023-05-13T08:46:26.000Z,18.20
2023-05-13T08:49:31.054Z,18.43
2023-05-13T08:52:34.503Z,18.32
2023-05-13T08:55:39.780Z,18.34
2023-05-13T08:58:43.163Z,18.17
2023-05-13T09:01:47.076Z,18.19
2023-05-13T09:04:56.181Z,18.10
2023-05-13T09:07:59.842Z,18.35
2023-05-13T09:11:03.645Z,18.14
2023-05-13T09:14:08.494Z,18.53
2023-05-13T09:17:12.299Z,18.48
2023-05-13T09:20:18.687Z,18.81
2023-05-13T09:23:25.455Z,18.63
2023-05-13T09:26:29.451Z,18.51
2023-05-13T09:29:33.757Z,18.70
2023-05-13T09:32:37.148Z,18.51
2023-05-13T09:35:43.951Z,19.08
2023-05-13T09:38:48.184Z,19.18
2023-05-13T09:41:51.674Z,19.22
2023-05-13T09:44:55.368Z,18.96
2023-05-13T09:47:59.055Z,18.94
2023-05-13T09:51:03.920Z,19.20
2023-05-13T09:54:08.212Z,19.05
2023-05-13T09:57:14.307Z,19.01
2023-05-13T10:00:31.697Z,19.41
2023-05-13T10:03:36.633Z,18.59
2023-05-13T10:06:41.771Z,18.82
2023-05-13T10:09:48.199Z,18.74
2023-05-13T10:12:54.004Z,19.10
2023-05-13T10:15:57.632Z,18.48
2023-05-13T10:19:01.967Z,18.20
2023-05-13T10:22:07.919Z,18.05
2023-05-13T10:25:12.940Z,17.83
2023-05-13T10:28:17.185Z,18.08
2023-05-13T10:31:20.829Z,18.96
2023-05-13T10:34:27.313Z,18.91
2023-05-13T10:38:01.771Z,18.51
2023-05-13T10:41:13.233Z,18.33
2023-05-13T10:44:16.788Z,19.50
2023-05-13T10:47:20.485Z,19.31
2023-05-13T10:50:25.519Z,19.37
2023-05-13T10:53:33.129Z,19.99
2023-05-13T10:56:37.763Z,18.94
2023-05-13T11:00:20.069Z,18.35
2023-05-13T11:03:31.079Z,18.31
2023-05-13T11:06:36.892Z,18.58
2023-05-13T11:09:40.420Z,18.34
2023-05-13T11:12:43.868Z,17.94
2023-05-13T11:15:51.132Z,17.88
2023-05-13T11:18:54.929Z,17.92
2023-05-13T11:22:00.459Z,17.74
2023-05-13T11:25:09.605Z,17.70
2023-05-13T11:28:16.669Z,17.89
2023-05-13T11:31:22.844Z,18.22
2023-05-13T11:34:26.669Z,18.05
2023-05-13T11:37:32.826Z,17.79
2023-05-13T11:40:39.135Z,17.69
2023-05-13T11:43:42.854Z,17.76
2023-05-13T11:46:56.389Z,17.62
2023-05-13T11:49:59.881Z,17.63
2023-05-13T11:53:03.638Z,18.39
2023-05-13T11:56:12.948Z,18.37
2023-05-13T11:59:16.760Z,18.36
2023-05-13T12:02:25.314Z,17.98
2023-05-13T12:05:30.413Z,17.92
2023-05-13T12:08:34.506Z,18.50
2023-05-13T12:11:38.194Z,18.14
2023-05-13T12:14:43.768Z,18.36
2023-05-13T12:17:50.871Z,18.32
2023-05-13T12:20:54.646Z,18.26
2023-05-13T12:23:58.847Z,18.27
2023-05-13T12:27:08.624Z,18.32
2023-05-13T12:30:16.630Z,18.19
2023-05-13T12:33:23.361Z,18.25
2023-05-13T12:36:35.969Z,18.21
2023-05-13T12:39:39.755Z,18.32
2023-05-13T12:42:46.345Z,18.36
2023-05-13T12:45:55.022Z,18.23
2023-05-13T12:49:01.555Z,18.27
2023-05-13T12:52:05.792Z,18.09
2023-05-13T12:55:10.562Z,17.93
2023-05-13T12:58:14.896Z,17.95
2023-05-13T13:01:19.016Z,17.72
2023-05-13T13:04:23.920Z,17.81
2023-05-13T13:07:27.566Z,17.51
2023-05-13T13:10:31.234Z,17.37
2023-05-13T13:13:36.688Z,17.38
2023-05-13T13:16:41.704Z,17.34
2023-05-13T13:19:46.743Z,17.35
2023-05-13T13:22:50.201Z,17.52
2023-05-13T13:25:53.701Z,17.48
2023-05-13T13:28:57.112Z,17.57
2023-05-13T13:32:00.742Z,17.81
2023-05-13T13:35:06.149Z,18.10
2023-05-13T13:38:09.886Z,18.26
2023-05-13T13:41:13.374Z,18.07
2023-05-13T13:44:16.942Z,18.18
2023-05-13T13:47:20.535Z,18.31
2023-05-13T13:50:25.761Z,18.40
2023-05-13T13:53:29.408Z,18.40
2023-05-13T13:56:33.031Z,18.32
2023-05-13T13:59:36.624Z,18.62
2023-05-13T14:02:41.072Z,19.56
2023-05-13T14:05:46.151Z,20.93
2023-05-13T14:08:51.164Z,20.60
2023-05-13T14:11:54.597Z,20.38
2023-05-13T14:14:58.295Z,20.21
2023-05-13T14:18:01.797Z,20.49
2023-05-13T14:21:10.878Z,19.70
2023-05-13T14:24:14.522Z,19.49
2023-05-13T14:27:18.025Z,19.72
2023-05-13T14:30:21.659Z,19.64
2023-05-13T14:33:25.798Z,19.28
2023-05-13T14:36:31.541Z,19.13
2023-05-13T14:39:35.131Z,19.22
2023-05-13T14:42:39.025Z,19.24
2023-05-13T14:45:43.170Z,19.45
2023-05-13T14:48:46.837Z,19.29
2023-05-13T14:51:51.883Z,19.15
2023-05-13T14:54:56.247Z,19.38
2023-05-13T14:57:59.808Z,19.11
2023-05-13T15:01:03.747Z,18.81
2023-05-13T15:04:07.510Z,18.81
2023-05-13T15:07:12.790Z,18.58
2023-05-13T15:10:16.403Z,18.64
2023-05-13T15:13:20.279Z,18.65
2023-05-13T15:16:23.983Z,18.92
2023-05-13T15:19:27.481Z,19.08
2023-05-13T15:22:34.088Z,19.02
2023-05-13T15:25:38.350Z,19.06
2023-05-13T15:28:42.077Z,19.45
2023-05-13T15:31:45.679Z,19.40
2023-05-13T15:34:49.451Z,19.31
2023-05-13T15:37:54.444Z,19.32
2023-05-13T15:40:57.945Z,18.78
2023-05-13T15:44:01.557Z,19.08
2023-05-13T15:47:06.226Z,18.86
2023-05-13T15:50:10.822Z,18.66
2023-05-13T15:53:16.199Z,18.51
2023-05-13T15:56:19.784Z,18.70
2023-05-13T15:59:23.331Z,18.63
2023-05-13T16:02:29.287Z,18.72
2023-05-13T16:05:33.572Z,18.75
2023-05-13T16:08:38.388Z,18.78
2023-05-13T16:11:42.724Z,18.29
2023-05-13T16:14:46.160Z,18.16
2023-05-13T16:17:49.678Z,18.05
2023-05-13T16:20:53.485Z,18.15
2023-05-13T16:23:58.558Z,18.07
2023-05-13T16:27:02.088Z,18.17
2023-05-13T16:30:07.456Z,18.43
2023-05-13T16:33:11.801Z,18.30
2023-05-13T16:36:15.603Z,18.67
2023-05-13T16:39:20.389Z,18.41
2023-05-13T16:42:24.390Z,18.20
2023-05-13T16:45:27.866Z,17.81
2023-05-13T16:48:31.396Z,17.42
2023-05-13T16:51:35.039Z,17.41
2023-05-13T16:54:40.037Z,17.42
2023-05-13T16:57:43.883Z,17.58
2023-05-13T17:00:47.342Z,17.46
2023-05-13T17:03:50.779Z,17.50
2023-05-13T17:06:55.795Z,17.28
2023-05-13T17:10:02.629Z,17.22
2023-05-13T17:13:06.131Z,17.53
2023-05-13T17:16:10.100Z,17.32
2023-05-13T17:19:13.571Z,17.28
2023-05-13T17:22:17.119Z,17.37
2023-05-13T17:25:21.894Z,17.30
2023-05-13T17:28:25.764Z,16.95
2023-05-13T17:31:29.623Z,16.90
2023-05-13T17:34:33.868Z,16.88
2023-05-13T17:37:37.710Z,16.63
2023-05-13T17:40:42.588Z,16.62
2023-05-13T17:43:45.994Z,16.57
2023-05-13T17:46:49.336Z,16.36
2023-05-13T17:49:52.678Z,16.24
2023-05-13T17:52:56.035Z,16.09
2023-05-13T17:56:01.078Z,16.28
2023-05-13T17:59:06.356Z,16.06
2023-05-13T18:02:09.884Z,15.65
2023-05-13T18:05:14.484Z,15.33
2023-05-13T18:08:18.034Z,15.58
2023-05-13T18:11:23.029Z,15.09
2023-05-13T18:14:26.460Z,14.61
2023-05-13T18:17:30.213Z,14.53
2023-05-13T18:20:34.395Z,14.34
2023-05-13T18:23:37.811Z,14.36
2023-05-13T18:26:43.108Z,14.16
2023-05-13T18:29:47.926Z,14.00
2023-05-13T18:32:52.022Z,13.93
2023-05-13T18:35:55.489Z,13.59
2023-05-13T18:38:59.483Z,13.36
2023-05-13T18:42:04.634Z,13.57
2023-05-13T18:45:09.108Z,13.37
2023-05-13T18:48:12.719Z,13.45
2023-05-13T18:51:16.580Z,13.67
2023-05-13T18:54:20.128Z,13.45
2023-05-13T18:57:25.252Z,13.57
2023-05-13T19:00:28.832Z,13.44
2023-05-13T19:03:32.525Z,13.73
2023-05-13T19:06:38.061Z,13.89
2023-05-13T19:09:41.776Z,13.70
2023-05-13T19:12:46.646Z,13.53
2023-05-13T19:15:50.281Z,13.08
2023-05-13T19:18:54.649Z,13.02
2023-05-13T19:21:58.173Z,12.82
2023-05-13T19:25:01.672Z,12.77
2023-05-13T19:28:06.676Z,12.77
2023-05-13T19:31:10.140Z,12.36
2023-05-13T19:34:14.710Z,12.39
2023-05-13T19:37:18.193Z,12.36
2023-05-13T19:40:22.196Z,12.20
2023-05-13T19:43:27.324Z,12.00
2023-05-13T19:46:31.234Z,11.87
2023-05-13T19:49:34.810Z,11.86
2023-05-13T19:52:38.224Z,11.40
2023-05-13T19:55:41.741Z,11.11
2023-05-13T19:58:46.574Z,11.03
2023-05-13T20:01:50.224Z,11.04
2023-05-13T20:04:53.700Z,11.16
2023-05-13T20:07:57.128Z,10.66
2023-05-13T20:11:00.936Z,10.89
2023-05-13T20:14:06.017Z,10.99
2023-05-13T20:17:09.460Z,10.74
2023-05-13T20:20:13.790Z,10.54
2023-05-13T20:23:17.222Z,10.36
2023-05-13T20:26:20.603Z,10.44
2023-05-13T20:29:25.531Z,10.19
2023-05-13T20:32:29.301Z,10.17
2023-05-13T20:35:32.995Z,9.97
2023-05-13T20:38:36.586Z,10.18
2023-05-13T20:41:40.220Z,10.01
2023-05-13T20:44:46.474Z,9.89
2023-05-13T20:47:49.906Z,9.95
2023-05-13T20:51:00.025Z,9.90
2023-05-13T20:54:03.468Z,9.55
2023-05-13T20:57:07.223Z,9.57
2023-05-13T21:00:14.023Z,9.51
2023-05-13T21:03:17.958Z,9.41
2023-05-13T21:06:24.731Z,9.56
2023-05-13T21:09:28.115Z,9.42
2023-05-13T21:12:31.532Z,9.35
2023-05-13T21:15:36.617Z,9.29
2023-05-13T21:18:40.508Z,9.38
2023-05-13T21:21:44.028Z,9.16
2023-05-13T21:24:47.984Z,8.91
2023-05-13T21:27:51.406Z,8.88
2023-05-13T21:30:56.231Z,9.10
2023-05-13T21:33:59.596Z,9.31
2023-05-13T21:37:05.337Z,9.26
2023-05-13T21:40:10.234Z,9.22
2023-05-13T21:43:13.900Z,9.15
2023-05-13T21:46:18.732Z,9.16
2023-05-13T21:49:22.150Z,9.06
2023-05-13T21:52:25.542Z,8.89
2023-05-13T21:55:28.953Z,8.82
2023-05-13T21:58:32.330Z,8.69
2023-05-13T22:01:38.056Z,8.77
2023-05-13T22:04:41.809Z,8.56
2023-05-13T22:07:45.225Z,8.40
2023-05-13T22:10:48.777Z,8.51
2023-05-13T22:13:52.388Z,8.32
2023-05-13T22:17:08.440Z,8.40
2023-05-13T22:20:14.075Z,8.45
2023-05-13T22:23:17.419Z,8.45
2023-05-13T22:26:21.964Z,8.21
2023-05-13T22:29:25.434Z,8.04
2023-05-13T22:32:30.664Z,7.94
2023-05-13T22:35:36.572Z,8.23
2023-05-13T22:38:40.744Z,8.42
2023-05-13T22:41:44.642Z,8.22
2023-05-13T22:44:48.132Z,8.14
2023-05-13T22:47:53.067Z,8.11
2023-05-13T22:50:58.415Z,7.82
2023-05-13T22:54:02.266Z,7.70
2023-05-13T22:57:05.945Z,7.61
2023-05-13T23:00:10.558Z,7.72
2023-05-13T23:03:15.367Z,7.66
2023-05-13T23:06:18.841Z,7.71
2023-05-13T23:09:22.326Z,7.91
2023-05-13T23:12:26.802Z,7.83
2023-05-13T23:15:30.237Z,8.12
2023-05-13T23:18:35.490Z,8.12
2023-05-13T23:21:39.019Z,8.11
2023-05-13T23:24:42.677Z,7.95
2023-05-13T23:27:46.088Z,7.97
2023-05-13T23:30:49.482Z,8.02
2023-05-13T23:33:54.665Z,8.03
2023-05-13T23:36:58.248Z,8.06
2023-05-13T23:40:02.501Z,8.27
2023-05-13T23:43:06.099Z,8.12
2023-05-13T23:46:09.820Z,8.28
2023-05-13T23:49:14.744Z,8.10
2023-05-13T23:52:18.476Z,8.08
2023-05-13T23:55:22.544Z,8.12
2023-05-13T23:58:26.032Z,8.18
